createdAt,value
2022-07-25T00:01:47.295Z,97890.41
2022-07-25T00:04:14.795Z,97892.66
2022-07-25T00:06:42.941Z,97877.84
2022-07-25T00:09:10.323Z,97878.91
2022-07-25T00:11:37.146Z,97874.53
2022-07-25T00:14:05.205Z,97875.63
2022-07-25T00:16:32.441Z,97871.63
2022-07-25T00:18:59.185Z,97863.56
2022-07-25T00:21:25.987Z,97862.72
2022-07-25T00:23:52.692Z,97858.50
2022-07-25T00:26:19.525Z,97852.16
2022-07-25T00:28:46.176Z,97848.25
2022-07-25T00:31:12.874Z,97840.59
2022-07-25T00:33:40.358Z,97848.78
2022-07-25T00:36:08.683Z,97844.25
2022-07-25T00:38:35.356Z,97840.41
2022-07-25T00:41:04.329Z,97843.44
2022-07-25T00:43:31.676Z,97841.50
2022-07-25T00:45:59.383Z,97850.53
2022-07-25T00:48:27.359Z,97841.91
2022-07-25T00:50:54.583Z,97847.34
2022-07-25T00:53:21.715Z,97852.13
2022-07-25T00:55:48.646Z,97841.97
2022-07-25T00:58:15.304Z,97842.69
2022-07-25T01:00:42.416Z,97839.78
2022-07-25T01:03:09.119Z,97835.25
2022-07-25T01:05:35.842Z,97833.72
2022-07-25T01:08:03.499Z,97833.22
2022-07-25T01:10:32.925Z,97829.50
2022-07-25T01:12:59.623Z,97831.00
2022-07-25T01:15:26.759Z,97829.28
2022-07-25T01:17:53.897Z,97830.84
2022-07-25T01:20:25.068Z,97830.69
2022-07-25T01:22:53.015Z,97830.22
2022-07-25T01:25:20.586Z,97822.81
2022-07-25T01:27:54.848Z,97825.38
2022-07-25T01:30:24.186Z,97818.72
2022-07-25T01:32:51.617Z,97820.66
2022-07-25T01:35:18.244Z,97817.28
2022-07-25T01:37:45.856Z,97821.31
2022-07-25T01:40:14.341Z,97818.63
2022-07-25T01:42:41.886Z,97810.72
2022-07-25T01:45:10.070Z,97815.19
2022-07-25T01:47:36.758Z,97800.81
2022-07-25T01:50:03.937Z,97797.97
2022-07-25T01:52:30.552Z,97791.09
2022-07-25T01:54:57.366Z,97787.34
2022-07-25T01:57:25.015Z,97786.25
2022-07-25T01:59:57.898Z,97785.66
2022-07-25T02:02:24.647Z,97789.41
2022-07-25T02:04:51.321Z,97793.28
2022-07-25T02:07:18.065Z,97785.59
2022-07-25T02:09:44.788Z,97790.81
2022-07-25T02:12:11.445Z,97782.25
2022-07-25T02:14:38.543Z,97785.66
2022-07-25T02:17:05.367Z,97785.97
2022-07-25T02:19:32.246Z,97787.50
2022-07-25T02:21:58.857Z,97780.31
2022-07-25T02:24:25.421Z,97778.31
2022-07-25T02:26:52.062Z,97775.34
2022-07-25T02:29:18.681Z,97781.19
2022-07-25T02:31:48.716Z,97781.03
2022-07-25T02:34:15.340Z,97778.91
2022-07-25T02:36:41.942Z,97784.19
2022-07-25T02:39:08.569Z,97770.22
2022-07-25T02:41:35.171Z,97773.34
2022-07-25T02:44:01.779Z,97759.19
2022-07-25T02:46:28.528Z,97765.19
2022-07-25T02:48:55.234Z,97770.09
2022-07-25T02:51:21.907Z,97758.56
2022-07-25T02:53:58.093Z,97752.81
2022-07-25T02:56:25.981Z,97757.66
2022-07-25T02:58:53.580Z,97753.97
2022-07-25T03:01:20.195Z,97751.34
2022-07-25T03:03:47.039Z,97745.53
2022-07-25T03:06:13.732Z,97750.44
2022-07-25T03:08:40.318Z,97750.53
2022-07-25T03:11:06.916Z,97750.53
2022-07-25T03:13:33.692Z,97747.50
2022-07-25T03:16:00.439Z,97749.03
2022-07-25T03:18:27.055Z,97750.78
2022-07-25T03:20:53.831Z,97743.66
2022-07-25T03:23:20.612Z,97739.84
2022-07-25T03:25:47.240Z,97746.97
2022-07-25T03:28:13.859Z,97733.06
2022-07-25T03:30:40.586Z,97734.66
2022-07-25T03:33:07.218Z,97729.13
2022-07-25T03:35:33.803Z,97723.19
2022-07-25T03:38:02.042Z,97726.22
2022-07-25T03:40:28.899Z,97720.97
2022-07-25T03:42:55.703Z,97724.91
2022-07-25T03:45:22.448Z,97711.97
2022-07-25T03:47:50.039Z,97712.94
2022-07-25T03:50:16.760Z,97716.47
2022-07-25T03:52:43.407Z,97709.31
2022-07-25T03:55:11.260Z,97717.06
2022-07-25T03:57:38.825Z,97715.28
2022-07-25T04:00:07.527Z,97714.56
2022-07-25T04:02:34.486Z,97710.28
2022-07-25T04:05:01.760Z,97703.91
2022-07-25T04:07:28.432Z,97708.28
2022-07-25T04:09:55.101Z,97704.66
2022-07-25T04:12:21.720Z,97700.94
2022-07-25T04:14:48.325Z,97700.94
2022-07-25T04:17:15.161Z,97695.00
2022-07-25T04:19:41.881Z,97696.16
2022-07-25T04:22:08.575Z,97693.44
2022-07-25T04:24:35.179Z,97688.97
2022-07-25T04:27:01.984Z,97688.53
2022-07-25T04:29:29.223Z,97684.38
2022-07-25T04:31:55.825Z,97682.88
2022-07-25T04:34:22.546Z,97683.59
2022-07-25T04:36:49.454Z,97679.47
2022-07-25T04:39:16.026Z,97671.88
2022-07-25T04:41:42.633Z,97674.91
2022-07-25T04:44:09.743Z,97670.25
2022-07-25T04:46:36.564Z,97666.50
2022-07-25T04:49:03.290Z,97662.69
2022-07-25T04:51:30.090Z,97666.09
2022-07-25T04:53:56.777Z,97660.25
2022-07-25T04:56:23.394Z,97658.19
2022-07-25T04:58:50.195Z,97652.44
2022-07-25T05:01:16.886Z,97655.59
2022-07-25T05:03:50.381Z,97655.31
2022-07-25T05:06:18.949Z,97649.66
2022-07-25T05:08:46.008Z,97643.31
2022-07-25T05:11:12.636Z,97642.81
2022-07-25T05:13:39.321Z,97643.97
2022-07-25T05:16:06.364Z,97637.19
2022-07-25T05:18:34.866Z,97649.50
2022-07-25T05:21:01.707Z,97647.94
2022-07-25T05:23:28.345Z,97647.34
2022-07-25T05:25:55.356Z,97641.06
2022-07-25T05:28:21.922Z,97652.06
2022-07-25T05:30:48.531Z,97653.66
2022-07-25T05:33:15.186Z,97643.94
2022-07-25T05:35:41.896Z,97644.97
2022-07-25T05:38:08.521Z,97635.81
2022-07-25T05:40:35.214Z,97636.03
2022-07-25T05:43:03.582Z,97640.88
2022-07-25T05:45:31.053Z,97631.19
2022-07-25T05:47:57.669Z,97629.69
2022-07-25T05:50:24.330Z,97635.06
2022-07-25T05:52:51.025Z,97636.63
2022-07-25T05:55:17.887Z,97639.72
2022-07-25T05:57:44.495Z,97637.84
2022-07-25T06:00:11.780Z,97632.94
2022-07-25T06:02:38.656Z,97629.63
2022-07-25T06:05:05.855Z,97632.31
2022-07-25T06:07:32.543Z,97630.81
2022-07-25T06:09:59.229Z,97624.84
2022-07-25T06:12:25.836Z,97630.53
2022-07-25T06:14:52.821Z,97619.56
2022-07-25T06:17:20.198Z,97626.00
2022-07-25T06:19:46.985Z,97626.38
2022-07-25T06:22:14.416Z,97630.50
2022-07-25T06:24:41.560Z,97615.75
2022-07-25T06:27:09.070Z,97621.81
2022-07-25T06:29:35.940Z,97608.47
2022-07-25T06:32:03.215Z,97605.88
2022-07-25T06:34:30.043Z,97601.22
2022-07-25T06:36:57.701Z,97605.22
2022-07-25T06:39:25.874Z,97609.09
2022-07-25T06:41:52.589Z,97604.72
2022-07-25T06:44:19.429Z,97604.72
2022-07-25T06:46:46.107Z,97597.59
2022-07-25T06:49:12.856Z,97594.13
2022-07-25T06:51:39.575Z,97599.06
2022-07-25T06:54:06.575Z,97598.03
2022-07-25T06:56:33.371Z,97603.63
2022-07-25T06:59:00.459Z,97596.81
2022-07-25T07:01:27.619Z,97598.81
2022-07-25T07:03:54.464Z,97590.50
2022-07-25T07:06:21.108Z,97592.84
2022-07-25T07:08:47.813Z,97596.28
2022-07-25T07:11:15.434Z,97590.19
2022-07-25T07:13:42.292Z,97594.59
2022-07-25T07:16:09.348Z,97595.59
2022-07-25T07:18:36.932Z,97585.53
2022-07-25T07:21:04.568Z,97593.00
2022-07-25T07:23:32.308Z,97582.38
2022-07-25T07:25:59.755Z,97589.53
2022-07-25T07:28:26.643Z,97586.13
2022-07-25T07:31:15.289Z,97590.19
2022-07-25T07:33:39.930Z,97572.31
2022-07-25T07:36:06.805Z,97572.53
2022-07-25T07:38:33.424Z,97569.41
2022-07-25T07:41:00.051Z,97571.63
2022-07-25T07:43:30.011Z,97570.03
2022-07-25T07:46:01.065Z,97564.50
2022-07-25T07:48:29.844Z,97564.59
2022-07-25T07:50:57.299Z,97560.41
2022-07-25T07:53:44.093Z,97562.91
2022-07-25T07:56:10.718Z,97557.56
2022-07-25T07:58:37.340Z,97560.59
2022-07-25T08:01:04.152Z,97554.47
2022-07-25T08:03:30.792Z,97559.53
2022-07-25T08:05:57.471Z,97557.69
2022-07-25T08:08:27.866Z,97562.50
2022-07-25T08:10:59.070Z,97554.19
2022-07-25T08:13:30.430Z,97551.91
2022-07-25T08:15:59.550Z,97547.03
2022-07-25T08:18:30.093Z,97543.16
2022-07-25T08:20:56.978Z,97540.28
2022-07-25T08:23:25.422Z,97542.66
2022-07-25T08:25:52.064Z,97541.81
2022-07-25T08:28:19.089Z,97537.53
2022-07-25T08:30:46.141Z,97538.47
2022-07-25T08:33:14.609Z,97543.19
2022-07-25T08:35:47.028Z,97543.13
2022-07-25T08:38:13.723Z,97536.44
2022-07-25T08:40:40.361Z,97528.88
2022-07-25T08:43:11.715Z,97525.63
2022-07-25T08:45:54.201Z,97523.88
2022-07-25T08:48:23.376Z,97536.28
2022-07-25T08:50:50.916Z,97533.81
2022-07-25T08:53:36.087Z,97525.50
2022-07-25T08:56:12.595Z,97534.09
2022-07-25T08:58:44.068Z,97521.66
2022-07-25T09:01:14.558Z,97511.44
2022-07-25T09:03:43.292Z,97513.84
2022-07-25T09:06:21.007Z,97513.94
2022-07-25T09:08:58.728Z,97511.00
2022-07-25T09:11:31.425Z,97498.16
2022-07-25T09:14:07.355Z,97509.13
2022-07-25T09:16:40.080Z,97512.06
2022-07-25T09:19:17.247Z,97515.81
2022-07-25T09:21:57.240Z,97503.53
2022-07-25T09:24:24.744Z,97498.41
2022-07-25T09:26:55.013Z,97503.91
2022-07-25T09:29:32.474Z,97509.38
2022-07-25T09:32:01.555Z,97507.66
2022-07-25T09:34:40.170Z,97508.84
2022-07-25T09:37:09.053Z,97508.31
2022-07-25T09:39:38.754Z,97505.63
2022-07-25T09:42:23.997Z,97500.06
2022-07-25T09:45:06.432Z,97503.06
2022-07-25T09:47:36.562Z,97503.72
2022-07-25T09:50:04.494Z,97494.38
2022-07-25T09:52:31.653Z,97485.19
2022-07-25T09:54:58.386Z,97482.97
2022-07-25T09:57:25.979Z,97489.28
2022-07-25T09:59:54.133Z,97488.53
2022-07-25T10:02:30.768Z,97476.59
2022-07-25T10:05:03.211Z,97486.41
2022-07-25T10:07:31.655Z,97486.16
2022-07-25T10:09:59.804Z,97477.78
2022-07-25T10:12:26.481Z,97472.50
2022-07-25T10:15:10.878Z,97472.53
2022-07-25T10:17:39.752Z,97472.34
2022-07-25T10:20:08.788Z,97472.50
2022-07-25T10:22:56.317Z,97480.97
2022-07-25T10:25:23.200Z,97474.50
2022-07-25T10:27:53.710Z,97491.44
2022-07-25T10:30:23.217Z,97478.44
2022-07-25T10:33:14.311Z,97479.00
2022-07-25T10:35:41.565Z,97485.94
2022-07-25T10:38:08.519Z,97488.75
2022-07-25T10:40:37.304Z,97498.94
2022-07-25T10:43:13.689Z,97496.78
2022-07-25T10:45:55.144Z,97503.31
2022-07-25T10:48:26.867Z,97493.41
2022-07-25T10:51:00.070Z,97493.41
2022-07-25T10:53:46.998Z,97490.31
2022-07-25T10:56:25.772Z,97496.13
2022-07-25T10:58:57.893Z,97500.41
2022-07-25T11:01:27.259Z,97499.22
2022-07-25T11:03:57.320Z,97503.94
2022-07-25T11:06:33.121Z,97508.72
2022-07-25T11:09:01.325Z,97500.25
2022-07-25T11:11:34.733Z,97500.78
2022-07-25T11:14:01.402Z,97505.00
2022-07-25T11:16:28.188Z,97502.38
2022-07-25T11:18:54.991Z,97494.22
2022-07-25T11:21:21.690Z,97503.41
2022-07-25T11:23:52.643Z,97500.50
2022-07-25T11:26:19.952Z,97507.91
2022-07-25T11:28:48.773Z,97489.38
2022-07-25T11:31:17.574Z,97491.28
2022-07-25T11:33:47.790Z,97491.50
2022-07-25T11:36:15.076Z,97484.88
2022-07-25T11:38:42.762Z,97499.25
2022-07-25T11:41:09.487Z,97506.31
2022-07-25T11:43:36.120Z,97505.50
2022-07-25T11:46:06.775Z,97514.06
2022-07-25T11:48:36.982Z,97514.53
2022-07-25T11:51:18.580Z,97519.22
2022-07-25T11:53:50.985Z,97532.81
2022-07-25T11:56:41.202Z,97545.03
2022-07-25T11:59:07.660Z,97550.00
2022-07-25T12:01:40.365Z,97551.13
2022-07-25T12:04:18.516Z,97570.28
2022-07-25T12:06:47.666Z,97560.97
2022-07-25T12:09:22.282Z,97567.34
2022-07-25T12:11:49.724Z,97565.91
2022-07-25T12:14:16.864Z,97564.81
2022-07-25T12:16:43.650Z,97567.44
2022-07-25T12:19:19.397Z,97557.25
2022-07-25T12:21:46.502Z,97553.84
2022-07-25T12:24:13.357Z,97550.44
2022-07-25T12:26:40.054Z,97546.06
2022-07-25T12:29:06.966Z,97552.56
2022-07-25T12:31:33.978Z,97549.47
2022-07-25T12:34:00.742Z,97544.63
2022-07-25T12:36:27.344Z,97518.56
2022-07-25T12:38:53.988Z,97504.81
2022-07-25T12:41:22.815Z,97502.78
2022-07-25T12:43:49.922Z,97503.84
2022-07-25T12:46:17.017Z,97507.88
2022-07-25T12:48:44.185Z,97513.13
2022-07-25T12:51:11.082Z,97508.69
2022-07-25T12:53:42.021Z,97500.19
2022-07-25T12:56:09.026Z,97497.94
2022-07-25T12:58:36.469Z,97501.13
2022-07-25T13:01:03.785Z,97494.41
2022-07-25T13:03:30.484Z,97495.97
2022-07-25T13:05:57.171Z,97499.97
2022-07-25T13:08:24.825Z,97492.22
2022-07-25T13:10:51.434Z,97490.38
2022-07-25T13:13:18.054Z,97493.72
2022-07-25T13:15:44.675Z,97491.44
2022-07-25T13:18:11.601Z,97479.75
2022-07-25T13:20:38.304Z,97482.88
2022-07-25T13:23:05.038Z,97479.53
2022-07-25T13:25:33.838Z,97476.69
2022-07-25T13:28:00.432Z,97476.59
2022-07-25T13:30:27.598Z,97467.69
2022-07-25T13:32:54.172Z,97471.72
2022-07-25T13:35:22.554Z,97471.41
2022-07-25T13:37:51.110Z,97481.38
2022-07-25T13:40:17.884Z,97475.16
2022-07-25T13:42:44.638Z,97478.50
2022-07-25T13:45:11.473Z,97472.47
2022-07-25T13:47:38.160Z,97469.28
2022-07-25T13:50:05.227Z,97472.09
2022-07-25T13:52:31.950Z,97472.22
2022-07-25T13:54:58.584Z,97475.78
2022-07-25T13:57:25.146Z,97463.72
2022-07-25T13:59:51.854Z,97473.47
2022-07-25T14:02:18.462Z,97457.19
2022-07-25T14:04:46.367Z,97454.59
2022-07-25T14:07:13.936Z,97446.81
2022-07-25T14:09:40.552Z,97436.84
2022-07-25T14:12:07.214Z,97443.56
2022-07-25T14:14:33.804Z,97436.38
2022-07-25T14:17:00.465Z,97441.03
2022-07-25T14:19:27.310Z,97439.63
2022-07-25T14:21:53.878Z,97437.69
2022-07-25T14:24:20.579Z,97444.44
2022-07-25T14:26:47.545Z,97436.28
2022-07-25T14:29:14.344Z,97428.28
2022-07-25T14:31:41.235Z,97413.44
2022-07-25T14:34:07.977Z,97417.09
2022-07-25T14:36:35.053Z,97416.44
2022-07-25T14:39:02.208Z,97412.50
2022-07-25T14:41:28.842Z,97422.81
2022-07-25T14:43:55.476Z,97415.88
2022-07-25T14:46:22.188Z,97428.00
2022-07-25T14:48:48.970Z,97430.63
2022-07-25T14:51:15.570Z,97431.53
2022-07-25T14:53:42.243Z,97440.41
2022-07-25T14:56:08.845Z,97449.91
2022-07-25T14:58:36.170Z,97437.88
2022-07-25T15:01:03.054Z,97460.69
2022-07-25T15:03:29.931Z,97452.72
2022-07-25T15:05:56.589Z,97461.47
2022-07-25T15:08:24.513Z,97471.97
2022-07-25T15:10:51.095Z,97470.44
2022-07-25T15:13:31.097Z,97470.41
2022-07-25T15:15:58.446Z,97479.00
2022-07-25T15:18:25.345Z,97495.22
2022-07-25T15:20:52.189Z,97497.72
2022-07-25T15:23:21.067Z,97491.31
2022-07-25T15:26:04.464Z,97495.53
2022-07-25T15:28:36.327Z,97496.03
2022-07-25T15:31:03.527Z,97505.53
2022-07-25T15:33:30.278Z,97494.06
2022-07-25T15:35:57.663Z,97490.09
2022-07-25T15:38:24.682Z,97496.13
2022-07-25T15:40:51.498Z,97503.41
2022-07-25T15:43:18.161Z,97513.59
2022-07-25T15:45:46.124Z,97515.25
2022-07-25T15:48:14.566Z,97517.59
2022-07-25T15:50:44.050Z,97522.41
2022-07-25T15:53:11.755Z,97535.66
2022-07-25T15:55:39.645Z,97582.38
2022-07-25T15:58:06.970Z,97549.34
2022-07-25T16:00:33.882Z,97553.69
2022-07-25T16:03:00.591Z,97539.22
2022-07-25T16:05:29.729Z,97550.72
2022-07-25T16:07:56.523Z,97556.72
2022-07-25T16:10:23.239Z,97561.59
2022-07-25T16:12:49.894Z,97553.25
2022-07-25T16:15:16.499Z,97556.03
2022-07-25T16:17:43.105Z,97554.78
2022-07-25T16:20:10.379Z,97554.34
2022-07-25T16:22:37.299Z,97549.22
2022-07-25T16:25:04.518Z,97556.50
2022-07-25T16:27:31.539Z,97561.00
2022-07-25T16:29:58.506Z,97565.50
2022-07-25T16:32:25.509Z,97574.84
2022-07-25T16:34:52.426Z,97573.78
2022-07-25T16:37:20.215Z,97577.53
2022-07-25T16:39:46.847Z,97570.09
2022-07-25T16:42:13.513Z,97579.38
2022-07-25T16:44:40.222Z,97574.88
2022-07-25T16:47:07.634Z,97579.50
2022-07-25T16:49:36.952Z,97593.03
2022-07-25T16:52:03.690Z,97578.31
2022-07-25T16:54:30.345Z,97587.69
2022-07-25T16:56:59.669Z,97597.25
2022-07-25T16:59:26.659Z,97590.16
2022-07-25T17:01:53.425Z,97586.81
2022-07-25T17:04:20.278Z,97595.44
2022-07-25T17:06:47.058Z,97595.41
2022-07-25T17:09:13.906Z,97604.72
2022-07-25T17:11:41.157Z,97613.63
2022-07-25T17:14:08.203Z,97613.09
2022-07-25T17:16:35.041Z,97622.09
2022-07-25T17:19:02.846Z,97626.63
2022-07-25T17:21:29.500Z,97617.25
2022-07-25T17:23:56.580Z,97633.69
2022-07-25T17:26:23.425Z,97637.44
2022-07-25T17:28:50.042Z,97647.31
2022-07-25T17:31:16.787Z,97638.22
2022-07-25T17:33:43.538Z,97648.06
2022-07-25T17:36:10.249Z,97643.09
2022-07-25T17:38:37.461Z,97655.47
2022-07-25T17:41:04.708Z,97661.94
2022-07-25T17:43:31.309Z,97647.75
2022-07-25T17:45:57.989Z,97651.97
2022-07-25T17:48:24.591Z,97663.78
2022-07-25T17:50:52.514Z,97664.63
2022-07-25T17:53:19.207Z,97676.09
2022-07-25T17:55:45.940Z,97668.03
2022-07-25T17:58:12.710Z,97666.69
2022-07-25T18:00:40.132Z,97673.72
2022-07-25T18:03:07.475Z,97659.81
2022-07-25T18:05:34.878Z,97662.75
2022-07-25T18:08:03.149Z,97658.22
2022-07-25T18:10:30.800Z,97656.47
2022-07-25T18:13:00.300Z,97660.63
2022-07-25T18:15:27.133Z,97662.63
2022-07-25T18:17:54.132Z,97658.50
2022-07-25T18:20:21.253Z,97673.81
2022-07-25T18:22:48.011Z,97670.28
2022-07-25T18:25:15.118Z,97674.44
2022-07-25T18:27:44.284Z,97677.84
2022-07-25T18:30:11.726Z,97670.66
2022-07-25T18:32:39.131Z,97679.44
2022-07-25T18:35:06.829Z,97679.09
2022-07-25T18:37:34.109Z,97668.84
2022-07-25T18:40:00.671Z,97674.28
2022-07-25T18:42:29.934Z,97666.84
2022-07-25T18:44:57.371Z,97673.16
2022-07-25T18:47:26.502Z,97680.66
2022-07-25T18:49:59.159Z,97682.63
2022-07-25T18:52:25.874Z,97673.91
2022-07-25T18:54:52.517Z,97679.63
2022-07-25T18:57:19.380Z,97683.41
2022-07-25T18:59:46.047Z,97674.69
2022-07-25T19:02:12.909Z,97683.44
2022-07-25T19:04:39.579Z,97674.72
2022-07-25T19:07:07.667Z,97679.28
2022-07-25T19:09:34.953Z,97687.63
2022-07-25T19:12:01.620Z,97685.91
2022-07-25T19:14:30.557Z,97682.22
2022-07-25T19:16:58.356Z,97689.41
2022-07-25T19:19:25.988Z,97692.84
2022-07-25T19:21:53.042Z,97698.91
2022-07-25T19:24:19.821Z,97705.41
2022-07-25T19:26:48.404Z,97706.50
2022-07-25T19:29:16.737Z,97717.44
2022-07-25T19:31:44.009Z,97715.19
2022-07-25T19:34:11.535Z,97721.66
2022-07-25T19:36:38.547Z,97726.53
2022-07-25T19:39:06.276Z,97722.81
2022-07-25T19:41:33.661Z,97732.28
2022-07-25T19:44:00.384Z,97727.28
2022-07-25T19:46:31.307Z,97731.84
2022-07-25T19:48:58.435Z,97739.44
2022-07-25T19:51:25.301Z,97733.00
2022-07-25T19:53:52.012Z,97732.66
2022-07-25T19:56:18.673Z,97749.69
2022-07-25T19:58:45.267Z,97750.44
2022-07-25T20:01:12.790Z,97754.66
2022-07-25T20:03:40.083Z,97754.22
2022-07-25T20:06:08.599Z,97753.50
2022-07-25T20:08:37.109Z,97758.47
2022-07-25T20:11:04.020Z,97762.63
2022-07-25T20:13:30.754Z,97757.31
2022-07-25T20:15:58.698Z,97747.47
2022-07-25T20:18:25.337Z,97755.78
2022-07-25T20:20:52.034Z,97758.47
2022-07-25T20:23:18.842Z,97757.69
2022-07-25T20:25:45.563Z,97759.19
2022-07-25T20:28:12.461Z,97764.53
2022-07-25T20:30:39.334Z,97770.94
2022-07-25T20:33:09.676Z,97779.66
2022-07-25T20:35:37.900Z,97777.03
2022-07-25T20:38:09.697Z,97778.91
2022-07-25T20:40:43.851Z,97778.16
2022-07-25T20:43:15.113Z,97781.16
2022-07-25T20:45:41.766Z,97794.41
2022-07-25T20:48:08.463Z,97792.91
2022-07-25T20:50:37.354Z,97801.19
2022-07-25T20:53:07.534Z,97799.31
2022-07-25T20:55:34.459Z,97808.38
2022-07-25T20:58:01.563Z,97808.69
2022-07-25T21:00:30.440Z,97817.66
2022-07-25T21:02:58.513Z,97815.09
2022-07-25T21:05:25.770Z,97824.16
2022-07-25T21:07:52.875Z,97839.25
2022-07-25T21:10:19.488Z,97833.53
2022-07-25T21:12:46.245Z,97828.94
2022-07-25T21:15:13.266Z,97839.91
2022-07-25T21:17:41.654Z,97839.09
2022-07-25T21:20:10.382Z,97848.59
2022-07-25T21:22:37.129Z,97852.72
2022-07-25T21:25:04.258Z,97857.66
2022-07-25T21:27:30.952Z,97854.97
2022-07-25T21:29:57.685Z,97864.81
2022-07-25T21:32:24.284Z,97870.34
2022-07-25T21:34:51.897Z,97865.22
2022-07-25T21:37:18.634Z,97874.72
2022-07-25T21:39:45.253Z,97872.22
2022-07-25T21:42:12.183Z,97871.88
2022-07-25T21:44:40.077Z,97882.38
2022-07-25T21:47:07.254Z,97888.88
2022-07-25T21:49:53.030Z,97894.78
2022-07-25T21:52:30.187Z,97884.56
2022-07-25T21:55:03.525Z,97890.63
2022-07-25T21:57:30.576Z,97889.78
2022-07-25T21:59:57.268Z,97893.00
2022-07-25T22:02:23.962Z,97895.50
2022-07-25T22:04:50.919Z,97901.59
2022-07-25T22:07:18.542Z,97909.06
2022-07-25T22:09:45.309Z,97910.84
2022-07-25T22:12:12.197Z,97916.75
2022-07-25T22:14:38.810Z,97910.56
2022-07-25T22:17:05.882Z,97916.47
2022-07-25T22:19:33.325Z,97918.34
2022-07-25T22:21:59.984Z,97920.22
2022-07-25T22:24:26.679Z,97925.44
2022-07-25T22:26:53.521Z,97929.44
2022-07-25T22:29:20.169Z,97933.28
2022-07-25T22:31:47.448Z,97925.75
2022-07-25T22:34:14.115Z,97929.06
2022-07-25T22:36:40.774Z,97924.03
2022-07-25T22:39:07.700Z,97922.63
2022-07-25T22:41:34.879Z,97923.72
2022-07-25T22:44:01.824Z,97931.09
2022-07-25T22:46:30.611Z,97932.03
2022-07-25T22:48:58.657Z,97931.22
2022-07-25T22:51:26.675Z,97925.88
2022-07-25T22:53:53.642Z,97933.75
2022-07-25T22:56:21.002Z,97937.81
2022-07-25T22:58:49.068Z,97928.09
2022-07-25T23:01:17.572Z,97929.88
2022-07-25T23:03:44.472Z,97932.50
2022-07-25T23:06:11.959Z,97924.63
2022-07-25T23:08:38.573Z,97921.25
2022-07-25T23:11:06.304Z,97921.97
2022-07-25T23:13:33.693Z,97923.00
2022-07-25T23:16:00.676Z,97918.56
2022-07-25T23:18:29.838Z,97921.84
2022-07-25T23:20:56.506Z,97915.59
2022-07-25T23:23:23.168Z,97921.09
2022-07-25T23:25:49.806Z,97910.94
2022-07-25T23:28:16.384Z,97918.56
2022-07-25T23:30:42.950Z,97908.38
2022-07-25T23:33:09.597Z,97912.53
2022-07-25T23:35:36.428Z,97912.88
2022-07-25T23:38:04.041Z,97911.13
2022-07-25T23:40:31.020Z,97911.06
2022-07-25T23:42:57.631Z,97905.13
2022-07-25T23:45:27.569Z,97919.75
2022-07-25T23:47:55.027Z,97912.47
2022-07-25T23:50:22.354Z,97908.50
2022-07-25T23:52:48.996Z,97912.22
2022-07-25T23:55:15.586Z,97902.06
2022-07-25T23:57:42.251Z,97908.50
